createdAt,value
2018-07-13T04:10:53.025Z,60
2018-07-13T04:11:18.507Z,60
2018-07-13T04:11:44.002Z,60
2018-07-13T04:12:09.440Z,60
2018-07-13T04:13:33.418Z,65
2018-07-13T04:13:58.913Z,65
2018-07-13T04:14:24.419Z,65
2018-07-13T04:14:49.886Z,65
2018-07-13T04:15:15.346Z,70
2018-07-13T04:15:40.867Z,75
2018-07-13T04:16:06.461Z,75
2018-07-13T04:16:31.900Z,80
2018-07-13T04:16:57.360Z,85
2018-07-13T04:17:22.820Z,85
2018-07-13T04:17:48.337Z,85
2018-07-13T04:18:13.776Z,90
2018-07-13T04:18:39.249Z,90
2018-07-13T04:20:08.340Z,85
2018-07-13T04:20:33.827Z,85
2018-07-13T04:20:59.293Z,80
2018-07-13T04:21:24.758Z,75
2018-07-13T04:21:50.234Z,70
2018-07-13T04:22:15.716Z,70
2018-07-13T04:22:41.206Z,65
2018-07-13T04:23:06.701Z,70
2018-07-13T04:23:32.183Z,65
2018-07-13T04:24:51.115Z,65
2018-07-13T04:25:16.620Z,65
2018-07-13T04:25:42.112Z,65
2018-07-13T04:26:07.622Z,65
2018-07-13T04:26:33.119Z,70
2018-07-13T04:26:58.607Z,70
2018-07-13T04:27:24.102Z,70
2018-07-13T04:27:49.596Z,70
2018-07-13T04:28:15.136Z,70
2018-07-13T04:28:40.668Z,75
2018-07-13T04:29:06.083Z,75
2018-07-13T04:29:31.588Z,75
2018-07-13T04:29:57.088Z,75
2018-07-13T04:30:22.589Z,75
2018-07-13T04:30:48.096Z,75
2018-07-13T04:31:13.556Z,75
2018-07-13T04:31:39.081Z,75
2018-07-13T04:32:04.614Z,75
2018-07-13T04:32:30.089Z,75
2018-07-13T04:32:55.571Z,80
2018-07-13T04:33:21.096Z,80
2018-07-13T04:33:46.566Z,80
2018-07-13T04:34:12.116Z,80
2018-07-13T04:34:37.590Z,80
2018-07-13T04:35:03.069Z,80
2018-07-13T04:35:28.587Z,80
2018-07-13T04:35:54.074Z,80
2018-07-13T04:36:19.598Z,80
2018-07-13T04:36:45.098Z,80
2018-07-13T04:37:10.562Z,80
2018-07-13T04:37:36.070Z,80
2018-07-13T04:38:01.546Z,85
2018-07-13T04:38:27.000Z,85
2018-07-13T04:38:52.553Z,80
2018-07-13T04:39:18.100Z,80
2018-07-13T04:39:43.528Z,80
2018-07-13T04:40:08.992Z,85
2018-07-13T04:40:34.505Z,80
2018-07-13T04:41:00.036Z,80
2018-07-13T04:41:25.517Z,80
2018-07-13T04:41:50.990Z,80
2018-07-13T04:42:16.507Z,80
2018-07-13T04:42:42.018Z,85
2018-07-13T04:43:07.528Z,85
2018-07-13T04:43:33.031Z,85
2018-07-13T04:43:58.554Z,90
2018-07-13T04:44:24.059Z,90
2018-07-13T04:44:49.544Z,90
2018-07-13T04:45:15.019Z,90
2018-07-13T04:45:40.521Z,90
2018-07-13T04:46:06.018Z,95
2018-07-13T04:46:31.531Z,95
2018-07-13T04:46:57.019Z,95
2018-07-13T04:47:22.499Z,95
2018-07-13T04:47:47.991Z,95
2018-07-13T04:48:13.484Z,100
2018-07-13T04:48:39.020Z,100
2018-07-13T04:49:04.525Z,105
2018-07-13T04:49:30.022Z,100
2018-07-13T04:49:55.512Z,95
2018-07-13T04:50:21.079Z,95
2018-07-13T04:50:46.506Z,95
2018-07-13T04:51:12.009Z,95
2018-07-13T04:51:37.491Z,95
2018-07-13T04:52:03.000Z,90
2018-07-13T04:52:28.496Z,90
2018-07-13T04:53:37.224Z,90
2018-07-13T04:54:02.722Z,90
2018-07-13T04:54:28.223Z,90
2018-07-13T04:54:53.733Z,95
2018-07-13T04:55:19.232Z,95
2018-07-13T04:55:44.694Z,95
2018-07-13T04:56:10.194Z,95
2018-07-13T04:56:35.705Z,100
2018-07-13T04:57:01.198Z,100
2018-07-13T04:57:26.698Z,95
2018-07-13T04:57:52.181Z,95
2018-07-13T04:58:17.667Z,95
2018-07-13T04:58:43.152Z,95
2018-07-13T04:59:08.638Z,95
2018-07-13T04:59:34.147Z,95
2018-07-13T04:59:59.637Z,95
2018-07-13T05:00:25.136Z,95
2018-07-13T05:00:50.686Z,95
2018-07-13T05:01:16.183Z,100
2018-07-13T05:01:41.705Z,100
2018-07-13T05:02:07.136Z,100
2018-07-13T05:02:32.625Z,100
2018-07-13T05:02:58.132Z,100
2018-07-13T05:03:23.615Z,100
2018-07-13T05:03:49.071Z,100
2018-07-13T05:04:14.550Z,95
2018-07-13T05:04:40.058Z,95
2018-07-13T05:05:05.564Z,90
2018-07-13T05:05:31.012Z,90
2018-07-13T05:05:56.529Z,90
2018-07-13T05:06:22.137Z,95
2018-07-13T05:06:47.544Z,100
2018-07-13T05:07:13.018Z,100
2018-07-13T05:07:38.503Z,95
2018-07-13T05:08:03.999Z,90
2018-07-13T05:08:29.485Z,90
2018-07-13T05:08:55.025Z,90
2018-07-13T05:09:20.522Z,90
2018-07-13T05:09:46.032Z,90
2018-07-13T05:10:11.551Z,90
2018-07-13T05:10:37.013Z,90
2018-07-13T05:11:02.521Z,90
2018-07-13T05:11:28.056Z,90
2018-07-13T05:11:53.562Z,90
2018-07-13T05:12:19.056Z,90
2018-07-13T05:12:44.579Z,90
2018-07-13T05:13:10.104Z,90
2018-07-13T05:13:35.587Z,85
2018-07-13T05:14:01.059Z,85
2018-07-13T05:14:26.556Z,90
2018-07-13T05:14:52.015Z,90
2018-07-13T05:15:17.479Z,95
2018-07-13T05:15:42.986Z,95
2018-07-13T05:16:08.499Z,95
2018-07-13T05:16:33.953Z,95
2018-07-13T05:16:59.446Z,95
2018-07-13T05:17:24.951Z,90
2018-07-13T05:17:50.442Z,90
2018-07-13T05:18:15.939Z,95
2018-07-13T05:18:41.435Z,100
2018-07-13T05:19:06.963Z,105
2018-07-13T05:19:32.500Z,105
2018-07-13T05:19:57.983Z,105
2018-07-13T05:20:23.479Z,100
2018-07-13T05:20:48.971Z,95
2018-07-13T05:21:14.479Z,90
2018-07-13T05:21:40.024Z,90
2018-07-13T05:22:05.556Z,95
2018-07-13T05:22:31.054Z,95
2018-07-13T05:22:56.556Z,95
2018-07-13T05:23:22.043Z,95
2018-07-13T05:23:47.550Z,95
2018-07-13T05:24:13.026Z,100
2018-07-13T05:24:38.540Z,105
2018-07-13T05:25:04.075Z,100
2018-07-13T05:25:29.557Z,95
2018-07-13T05:25:55.036Z,90
2018-07-13T05:26:20.554Z,85
2018-07-13T05:26:46.045Z,90
2018-07-13T05:27:11.558Z,95
2018-07-13T05:27:37.038Z,95
2018-07-13T05:28:02.577Z,90
2018-07-13T05:29:16.367Z,90
2018-07-13T05:29:41.868Z,85
2018-07-13T05:30:07.345Z,75
2018-07-13T05:30:32.852Z,75
2018-07-13T05:30:58.324Z,75
2018-07-13T05:31:23.853Z,80
2018-07-13T05:31:49.316Z,85
2018-07-13T05:32:14.791Z,85
2018-07-13T05:32:40.274Z,75
2018-07-13T05:33:05.746Z,70
2018-07-13T05:33:31.277Z,65
2018-07-13T05:33:56.776Z,65
2018-07-13T05:34:22.272Z,65
2018-07-13T05:34:47.772Z,70
2018-07-13T05:35:13.494Z,75
2018-07-13T05:35:38.923Z,90
2018-07-13T05:36:04.437Z,95
2018-07-13T05:36:30.638Z,95
2018-07-13T05:36:56.143Z,90
2018-07-13T05:37:21.650Z,95
2018-07-13T05:37:47.119Z,100
2018-07-13T05:38:12.701Z,110
2018-07-13T05:38:38.117Z,130
2018-07-13T05:39:03.629Z,145
2018-07-13T05:39:29.162Z,150
2018-07-13T05:39:54.646Z,150
2018-07-13T05:40:20.194Z,145
2018-07-13T05:40:45.688Z,140
2018-07-13T05:41:11.187Z,135
2018-07-13T05:41:36.725Z,125
2018-07-13T05:42:02.273Z,110
2018-07-13T05:42:27.816Z,100
2018-07-13T05:42:53.312Z,95
2018-07-13T05:43:18.818Z,90
2018-07-13T05:44:42.842Z,85
2018-07-13T05:45:08.337Z,85
2018-07-13T05:45:33.829Z,90
2018-07-13T05:45:59.328Z,90
2018-07-13T05:46:24.813Z,100
2018-07-13T05:46:50.338Z,110
2018-07-13T05:47:15.820Z,110
2018-07-13T05:47:41.322Z,105
2018-07-13T05:48:06.824Z,95
2018-07-13T05:48:32.398Z,90
2018-07-13T05:48:57.802Z,90
2018-07-13T05:49:23.324Z,90
2018-07-13T05:49:48.840Z,100
2018-07-13T05:50:14.329Z,115
2018-07-13T05:50:39.828Z,120
2018-07-13T05:51:05.317Z,115
2018-07-13T05:51:30.819Z,100
2018-07-13T05:51:56.308Z,95
2018-07-13T05:52:21.810Z,95
2018-07-13T05:52:47.294Z,100
2018-07-13T05:53:12.829Z,105
2018-07-13T05:53:38.315Z,105
2018-07-13T05:55:07.462Z,100
2018-07-13T05:55:32.955Z,100
2018-07-13T05:55:58.442Z,95
2018-07-13T05:56:23.940Z,90
2018-07-13T05:56:49.427Z,90
2018-07-13T05:58:08.346Z,90
2018-07-13T05:58:33.853Z,90
2018-07-13T05:58:59.361Z,90
2018-07-13T05:59:24.860Z,90
2018-07-13T05:59:50.365Z,90
2018-07-13T06:00:15.860Z,100
2018-07-13T06:00:41.356Z,105
2018-07-13T06:01:06.873Z,105
2018-07-13T06:01:32.368Z,105
2018-07-13T06:01:57.858Z,105
2018-07-13T06:02:23.370Z,110
2018-07-13T06:02:48.828Z,115
2018-07-13T06:03:14.299Z,105
2018-07-13T06:03:39.773Z,105
2018-07-13T06:04:05.291Z,110
2018-07-13T06:04:30.789Z,115
2018-07-13T06:04:56.309Z,125
2018-07-13T06:05:21.778Z,135
2018-07-13T06:05:47.296Z,145
2018-07-13T06:06:12.790Z,150
2018-07-13T06:07:26.629Z,125
2018-07-13T06:07:52.145Z,115
2018-07-13T06:08:17.643Z,110
2018-07-13T06:08:43.156Z,110
2018-07-13T06:09:08.619Z,115
2018-07-13T06:09:34.103Z,115
2018-07-13T06:09:59.587Z,110
2018-07-13T06:10:25.089Z,105
2018-07-13T06:10:50.594Z,100
2018-07-13T06:11:16.106Z,105
2018-07-13T06:11:41.563Z,115
2018-07-13T06:12:07.071Z,120
2018-07-13T06:12:32.571Z,125
2018-07-13T06:12:58.064Z,120
2018-07-13T06:13:23.560Z,120
2018-07-13T06:13:49.053Z,115
2018-07-13T06:14:14.536Z,110
2018-07-13T06:14:40.063Z,110
2018-07-13T06:15:05.642Z,105
2018-07-13T06:15:31.050Z,105
2018-07-13T06:15:56.541Z,105
2018-07-13T06:16:22.046Z,105
2018-07-13T06:16:47.540Z,105
2018-07-13T06:17:13.057Z,105
2018-07-13T06:17:38.531Z,110
2018-07-13T06:18:04.043Z,105
2018-07-13T06:18:29.525Z,110
2018-07-13T06:18:55.008Z,110
2018-07-13T06:19:20.530Z,115
2018-07-13T06:19:46.030Z,115
2018-07-13T06:20:11.488Z,120
2018-07-13T06:20:36.978Z,125
2018-07-13T06:21:02.482Z,130
2018-07-13T06:21:27.975Z,140
2018-07-13T06:21:53.477Z,140
2018-07-13T06:22:18.965Z,145
2018-07-13T06:22:44.489Z,150
2018-07-13T06:23:09.991Z,155
2018-07-13T06:23:35.474Z,165
2018-07-13T06:24:00.946Z,170
2018-07-13T06:24:26.447Z,180
2018-07-13T06:24:51.926Z,195
2018-07-13T06:25:17.413Z,205
2018-07-13T06:25:42.911Z,215
2018-07-13T06:26:08.410Z,230
2018-07-13T06:26:33.913Z,240
2018-07-13T06:26:59.420Z,245
2018-07-13T06:27:24.921Z,245
2018-07-13T06:27:50.421Z,245
2018-07-13T06:28:15.958Z,245
2018-07-13T06:28:41.494Z,245
2018-07-13T06:29:06.985Z,265
2018-07-13T06:29:32.476Z,230
2018-07-13T06:29:57.983Z,220
2018-07-13T06:30:23.500Z,205
2018-07-13T06:30:49.007Z,200
2018-07-13T06:31:14.497Z,205
2018-07-13T06:31:39.980Z,205
2018-07-13T06:32:05.449Z,210
2018-07-13T06:32:30.965Z,210
2018-07-13T06:32:56.507Z,215
2018-07-13T06:33:22.006Z,215
2018-07-13T06:33:47.491Z,220
2018-07-13T06:34:12.960Z,225
2018-07-13T06:34:38.472Z,230
2018-07-13T06:35:03.962Z,250
2018-07-13T06:35:29.459Z,265
2018-07-13T06:35:54.958Z,255
2018-07-13T06:36:20.462Z,245
2018-07-13T06:36:45.949Z,230
2018-07-13T06:37:11.432Z,210
2018-07-13T06:37:36.953Z,210
2018-07-13T06:38:02.478Z,200
2018-07-13T06:38:27.985Z,195
2018-07-13T06:38:53.539Z,190
2018-07-13T06:39:19.039Z,185
2018-07-13T06:39:44.536Z,185
2018-07-13T06:40:10.005Z,185
2018-07-13T06:40:35.524Z,185
2018-07-13T06:41:01.040Z,185
2018-07-13T06:41:26.556Z,185
2018-07-13T06:41:52.067Z,185
2018-07-13T06:42:17.549Z,185
2018-07-13T06:42:43.021Z,190
2018-07-13T06:43:08.527Z,200
2018-07-13T06:43:34.018Z,215
2018-07-13T06:43:59.524Z,225
2018-07-13T06:44:25.032Z,225
2018-07-13T06:44:50.507Z,215
2018-07-13T06:45:16.008Z,205
2018-07-13T06:46:24.720Z,185
2018-07-13T06:46:50.227Z,190
2018-07-13T06:47:15.713Z,180
2018-07-13T06:47:41.208Z,180
2018-07-13T06:48:06.709Z,175
2018-07-13T06:48:32.199Z,175
2018-07-13T06:48:57.711Z,170
2018-07-13T06:49:23.213Z,165
2018-07-13T06:49:48.734Z,160
2018-07-13T06:50:14.233Z,160
2018-07-13T06:50:39.766Z,165
2018-07-13T06:51:05.270Z,170
2018-07-13T06:51:30.771Z,170
2018-07-13T06:51:56.268Z,165
2018-07-13T06:52:21.777Z,165
2018-07-13T06:52:47.285Z,175
2018-07-13T06:53:12.807Z,195
2018-07-13T06:53:38.279Z,205
2018-07-13T06:54:03.816Z,215
2018-07-13T06:54:29.295Z,220
2018-07-13T06:54:54.769Z,220
2018-07-13T06:55:20.306Z,220
2018-07-13T06:55:45.803Z,230
2018-07-13T06:56:11.277Z,235
2018-07-13T06:56:36.784Z,235
2018-07-13T06:57:02.253Z,235
2018-07-13T06:57:27.786Z,225
2018-07-13T06:57:53.264Z,205
2018-07-13T06:58:18.783Z,195
2018-07-13T06:58:44.291Z,185
2018-07-13T06:59:09.836Z,185
2018-07-13T06:59:35.340Z,185
2018-07-13T07:00:00.847Z,175
2018-07-13T07:00:26.349Z,170
2018-07-13T07:00:51.882Z,165
2018-07-13T07:01:17.398Z,160
2018-07-13T07:01:42.876Z,165
2018-07-13T07:02:08.387Z,165
2018-07-13T07:02:33.868Z,170
2018-07-13T07:02:59.359Z,170
2018-07-13T07:03:24.857Z,175
2018-07-13T07:03:50.370Z,185
2018-07-13T07:04:15.865Z,190
2018-07-13T07:04:41.354Z,195
2018-07-13T07:05:06.860Z,195
2018-07-13T07:05:32.353Z,190
2018-07-13T07:05:57.851Z,190
2018-07-13T07:06:23.334Z,185
2018-07-13T07:06:48.820Z,190
2018-07-13T07:07:14.333Z,195
2018-07-13T07:07:39.914Z,200
2018-07-13T07:09:08.943Z,195
2018-07-13T07:09:34.434Z,190
2018-07-13T07:09:59.940Z,185
2018-07-13T07:10:25.456Z,175
2018-07-13T07:10:50.979Z,170
2018-07-13T07:11:16.475Z,165
2018-07-13T07:11:41.975Z,165
2018-07-13T07:12:07.501Z,165
2018-07-13T07:12:32.951Z,180
2018-07-13T07:12:58.423Z,195
2018-07-13T07:13:23.952Z,210
2018-07-13T07:13:49.439Z,220
2018-07-13T07:14:14.944Z,230
2018-07-13T07:14:40.408Z,235
2018-07-13T07:15:05.944Z,235
2018-07-13T07:15:31.472Z,240
2018-07-13T07:15:56.952Z,245
2018-07-13T07:16:22.449Z,250
2018-07-13T07:16:47.947Z,260
2018-07-13T07:17:13.445Z,255
2018-07-13T07:17:38.932Z,240
2018-07-13T07:18:04.476Z,225
2018-07-13T07:18:29.924Z,220
2018-07-13T07:18:55.392Z,225
2018-07-13T07:19:20.901Z,240
2018-07-13T07:19:46.435Z,255
2018-07-13T07:20:11.929Z,275
2018-07-13T07:20:37.453Z,295
2018-07-13T07:21:02.950Z,310
2018-07-13T07:21:28.408Z,320
2018-07-13T07:21:53.927Z,325
2018-07-13T07:22:19.423Z,320
2018-07-13T07:22:44.906Z,320
2018-07-13T07:23:10.468Z,320
2018-07-13T07:23:35.934Z,315
2018-07-13T07:24:01.426Z,315
2018-07-13T07:24:26.908Z,315
2018-07-13T07:24:52.365Z,330
2018-07-13T07:25:17.867Z,345
2018-07-13T07:25:43.336Z,390
2018-07-13T07:26:08.866Z,430
2018-07-13T07:26:34.385Z,450
2018-07-13T07:26:59.870Z,465
2018-07-13T07:27:25.376Z,495
2018-07-13T07:27:50.889Z,440
2018-07-13T07:28:16.410Z,390
2018-07-13T07:28:41.935Z,340
2018-07-13T07:29:07.411Z,340
2018-07-13T07:29:32.908Z,325
2018-07-13T07:29:58.402Z,325
2018-07-13T07:30:23.917Z,330
2018-07-13T07:30:49.428Z,335
2018-07-13T07:31:14.921Z,345
2018-07-13T07:31:40.446Z,340
2018-07-13T07:32:05.949Z,315
2018-07-13T07:32:31.456Z,310
2018-07-13T07:32:57.079Z,320
2018-07-13T07:33:22.632Z,330
2018-07-13T07:33:48.173Z,345
2018-07-13T07:34:13.688Z,365
2018-07-13T07:34:39.205Z,375
2018-07-13T07:35:04.700Z,375
2018-07-13T07:35:30.207Z,370
2018-07-13T07:35:55.693Z,380
2018-07-13T07:36:21.174Z,405
2018-07-13T07:36:46.726Z,390
2018-07-13T07:37:12.203Z,375
2018-07-13T07:37:37.722Z,360
2018-07-13T07:38:03.249Z,360
2018-07-13T07:38:28.797Z,365
2018-07-13T07:38:54.250Z,375
2018-07-13T07:39:19.732Z,395
2018-07-13T07:39:45.209Z,420
2018-07-13T07:40:10.731Z,435
2018-07-13T07:40:36.233Z,430
2018-07-13T07:41:01.745Z,430
2018-07-13T07:41:27.194Z,840
2018-07-13T07:41:52.695Z,545
2018-07-13T07:42:18.189Z,440
2018-07-13T07:42:43.701Z,450
2018-07-13T07:43:09.182Z,460
2018-07-13T07:43:34.703Z,470
2018-07-13T07:44:00.284Z,485
2018-07-13T07:45:14.025Z,1305
2018-07-13T07:45:39.499Z,690
2018-07-13T07:46:04.956Z,430
2018-07-13T07:46:30.460Z,405
2018-07-13T07:46:55.957Z,395
2018-07-13T07:47:21.442Z,390
2018-07-13T07:47:46.900Z,395
2018-07-13T07:48:12.391Z,425
2018-07-13T07:48:37.851Z,450
2018-07-13T07:49:03.355Z,485
2018-07-13T07:49:28.883Z,485
2018-07-13T07:49:54.376Z,475
2018-07-13T07:50:19.874Z,485
2018-07-13T07:50:45.378Z,500
2018-07-13T07:51:10.969Z,510
2018-07-13T07:51:36.455Z,505
2018-07-13T07:52:01.960Z,535
2018-07-13T07:52:27.456Z,515
2018-07-13T07:52:52.934Z,615
2018-07-13T07:53:18.448Z,505
2018-07-13T07:53:43.960Z,495
2018-07-13T07:54:09.475Z,515
2018-07-13T07:54:34.953Z,630
2018-07-13T07:55:00.447Z,615
2018-07-13T07:55:25.949Z,580
2018-07-13T07:55:51.446Z,570
2018-07-13T07:56:16.923Z,585
2018-07-13T07:56:42.417Z,580
2018-07-13T07:57:07.913Z,1420
2018-07-13T07:57:33.470Z,1510
2018-07-13T07:57:58.883Z,950
2018-07-13T07:58:24.446Z,380
2018-07-13T07:58:49.937Z,345
2018-07-13T07:59:15.450Z,330
2018-07-13T07:59:40.922Z,320
2018-07-13T08:00:06.414Z,310
2018-07-13T08:00:31.966Z,315
2018-07-13T08:00:57.470Z,310
2018-07-13T08:01:23.021Z,320
2018-07-13T08:01:48.547Z,320
2018-07-13T08:02:14.000Z,315
2018-07-13T08:02:39.492Z,305
2018-07-13T08:03:04.984Z,310
2018-07-13T08:03:30.520Z,350
2018-07-13T08:03:56.026Z,1055
2018-07-13T08:04:21.521Z,1415
2018-07-13T08:04:47.038Z,1935
2018-07-13T08:05:12.529Z,1850
2018-07-13T08:05:38.041Z,1425
2018-07-13T08:06:03.678Z,1805
2018-07-13T08:06:29.209Z,1805
2018-07-13T08:06:55.005Z,1825
2018-07-13T08:07:20.259Z,1880
2018-07-13T08:07:45.596Z,1825
2018-07-13T08:08:11.100Z,1730
2018-07-13T08:08:36.552Z,1690
2018-07-13T08:09:02.055Z,1645
2018-07-13T08:09:27.581Z,1585
2018-07-13T08:09:53.197Z,1415
2018-07-13T08:10:18.613Z,1470
2018-07-13T08:10:44.095Z,1400
2018-07-13T08:11:09.580Z,570
2018-07-13T08:11:35.049Z,1270
2018-07-13T08:12:00.547Z,1300
2018-07-13T08:12:26.043Z,1350
2018-07-13T08:12:51.527Z,1330
2018-07-13T08:13:17.026Z,1300
2018-07-13T08:13:42.664Z,955
2018-07-13T08:14:08.160Z,1315
2018-07-13T08:14:33.723Z,1350
2018-07-13T08:14:59.051Z,1340
2018-07-13T08:15:24.539Z,1360
2018-07-13T08:15:50.045Z,1330
2018-07-13T08:16:15.522Z,1085
2018-07-13T08:16:40.996Z,1305
2018-07-13T08:17:06.469Z,1200
2018-07-13T08:17:31.965Z,1110
2018-07-13T08:17:57.465Z,975
2018-07-13T08:18:22.991Z,835
2018-07-13T08:18:48.461Z,645
2018-07-13T08:19:13.907Z,485
2018-07-13T08:19:39.384Z,390
2018-07-13T08:20:04.905Z,345
2018-07-13T08:20:30.417Z,330
2018-07-13T08:20:55.909Z,320
2018-07-13T08:21:21.358Z,320
2018-07-13T08:21:46.870Z,320
2018-07-13T08:22:12.333Z,315
2018-07-13T08:22:37.829Z,315
2018-07-13T08:23:03.290Z,315
2018-07-13T08:23:28.787Z,310
2018-07-13T08:23:54.294Z,310
2018-07-13T08:24:19.790Z,305
2018-07-13T08:24:45.317Z,305
2018-07-13T08:25:10.801Z,305
2018-07-13T08:25:36.289Z,305
2018-07-13T08:26:01.775Z,305
2018-07-13T08:26:27.271Z,310
2018-07-13T08:26:52.767Z,315
2018-07-13T08:27:18.281Z,320
2018-07-13T08:27:43.723Z,325
2018-07-13T08:28:09.206Z,335
2018-07-13T08:28:34.670Z,335
2018-07-13T08:29:43.533Z,320
2018-07-13T08:30:09.010Z,320
2018-07-13T08:30:34.499Z,325
2018-07-13T08:31:00.019Z,325
2018-07-13T08:31:25.537Z,320
2018-07-13T08:31:51.052Z,305
2018-07-13T08:32:16.572Z,300
2018-07-13T08:32:42.076Z,295
2018-07-13T08:33:07.555Z,290
2018-07-13T08:33:33.069Z,285
2018-07-13T08:33:58.556Z,280
2018-07-13T08:34:24.095Z,280
2018-07-13T08:34:49.599Z,280
2018-07-13T08:35:15.071Z,275
2018-07-13T08:35:40.549Z,270
2018-07-13T08:36:06.051Z,270
2018-07-13T08:37:30.059Z,260
2018-07-13T08:37:55.540Z,260
2018-07-13T08:38:21.062Z,255
2018-07-13T08:38:46.551Z,255
2018-07-13T08:39:12.092Z,250
2018-07-13T08:39:37.579Z,250
2018-07-13T08:40:03.098Z,250
2018-07-13T08:40:28.625Z,250
2018-07-13T08:41:57.711Z,245
2018-07-13T08:42:23.217Z,245
2018-07-13T08:42:48.720Z,240
2018-07-13T08:43:14.196Z,240
2018-07-13T08:43:39.701Z,240
2018-07-13T08:44:05.249Z,240
2018-07-13T08:44:30.680Z,235
2018-07-13T08:44:56.154Z,235
2018-07-13T08:45:21.660Z,230
2018-07-13T08:45:47.179Z,230
2018-07-13T08:46:12.632Z,230
2018-07-13T08:46:38.115Z,230
2018-07-13T08:47:03.622Z,230
2018-07-13T08:47:29.107Z,215
2018-07-13T08:47:54.583Z,225
2018-07-13T08:48:20.078Z,220
2018-07-13T08:48:45.598Z,220
2018-07-13T08:49:11.093Z,220
2018-07-13T08:49:36.620Z,215
2018-07-13T08:50:02.122Z,215
2018-07-13T08:50:27.647Z,215
2018-07-13T08:50:53.108Z,215
2018-07-13T08:51:18.666Z,215
2018-07-13T08:51:44.120Z,215
2018-07-13T08:52:09.585Z,215
2018-07-13T08:52:35.045Z,215
2018-07-13T08:53:00.552Z,215
2018-07-13T08:53:26.002Z,215
2018-07-13T08:53:51.485Z,215
2018-07-13T08:54:17.021Z,215
2018-07-13T08:54:42.506Z,215
2018-07-13T08:55:08.044Z,215
2018-07-13T08:55:33.529Z,215
2018-07-13T08:55:59.041Z,220
2018-07-13T08:56:24.518Z,215
2018-07-13T08:56:50.041Z,210
2018-07-13T08:57:15.581Z,210
2018-07-13T08:57:41.083Z,215
2018-07-13T08:58:06.618Z,215
2018-07-13T08:58:32.175Z,215
2018-07-13T08:58:57.680Z,215
2018-07-13T08:59:23.188Z,215
2018-07-13T08:59:48.699Z,215
2018-07-13T09:00:14.168Z,200
2018-07-13T09:00:39.625Z,210
2018-07-13T09:01:05.124Z,205
2018-07-13T09:01:30.594Z,210
2018-07-13T09:01:56.075Z,205
2018-07-13T09:02:21.587Z,205
2018-07-13T09:02:47.057Z,205
2018-07-13T09:03:12.573Z,205
2018-07-13T09:03:38.074Z,205
2018-07-13T09:04:03.649Z,200
2018-07-13T09:04:29.139Z,200
2018-07-13T09:04:54.736Z,200
2018-07-13T09:05:20.298Z,200
2018-07-13T09:05:45.807Z,200
2018-07-13T09:06:11.269Z,200
2018-07-13T09:06:36.939Z,200
2018-07-13T09:07:02.275Z,200
2018-07-13T09:07:27.867Z,200
2018-07-13T09:07:53.261Z,200
2018-07-13T09:08:18.781Z,200
2018-07-13T09:08:44.246Z,205
2018-07-13T09:09:09.738Z,200
2018-07-13T09:09:35.243Z,200
2018-07-13T09:10:00.753Z,200
2018-07-13T09:10:26.278Z,200
2018-07-13T09:10:51.834Z,200
2018-07-13T09:11:17.295Z,200
2018-07-13T09:11:42.852Z,200
2018-07-13T09:12:08.281Z,200
2018-07-13T09:13:37.353Z,200
2018-07-13T09:14:02.864Z,200
2018-07-13T09:14:28.370Z,200
2018-07-13T09:14:53.918Z,200
2018-07-13T09:15:19.403Z,205
2018-07-13T09:15:44.910Z,200
2018-07-13T09:16:10.402Z,200
2018-07-13T09:16:35.918Z,200
2018-07-13T09:17:01.409Z,200
2018-07-13T09:17:26.901Z,205
2018-07-13T09:17:52.386Z,200
2018-07-13T09:18:18.008Z,200
2018-07-13T09:18:43.539Z,200
2018-07-13T09:19:09.015Z,195
2018-07-13T09:19:34.526Z,195
2018-07-13T09:20:00.054Z,195
2018-07-13T09:20:25.538Z,200
2018-07-13T09:20:51.033Z,200
2018-07-13T09:21:16.530Z,200
2018-07-13T09:21:42.025Z,195
2018-07-13T09:22:07.600Z,195
2018-07-13T09:22:33.044Z,195
2018-07-13T09:22:58.533Z,195
2018-07-13T09:23:24.095Z,195
2018-07-13T09:23:49.535Z,195
2018-07-13T09:24:15.033Z,195
2018-07-13T09:24:40.525Z,195
2018-07-13T09:25:06.043Z,190
2018-07-13T09:25:31.546Z,190
2018-07-13T09:25:57.020Z,190
2018-07-13T09:26:22.508Z,190
2018-07-13T09:26:47.978Z,190
2018-07-13T09:27:13.529Z,190
2018-07-13T09:27:38.974Z,190
2018-07-13T09:28:04.514Z,190
2018-07-13T09:28:29.943Z,185
2018-07-13T09:28:55.437Z,190
2018-07-13T09:29:20.944Z,190
2018-07-13T09:29:46.425Z,190
2018-07-13T09:30:11.936Z,190
2018-07-13T09:30:37.525Z,190
2018-07-13T09:31:03.106Z,190
2018-07-13T09:31:28.593Z,185
2018-07-13T09:31:54.089Z,185
2018-07-13T09:32:19.564Z,185
2018-07-13T09:32:45.085Z,185
2018-07-13T09:33:10.587Z,185
2018-07-13T09:33:36.128Z,185
2018-07-13T09:34:01.625Z,185
2018-07-13T09:34:27.160Z,185
2018-07-13T09:35:40.950Z,180
2018-07-13T09:36:06.445Z,180
2018-07-13T09:36:31.937Z,180
2018-07-13T09:36:57.464Z,180
2018-07-13T09:37:22.977Z,180
2018-07-13T09:37:48.448Z,180
2018-07-13T09:38:14.006Z,180
2018-07-13T09:38:39.439Z,180
2018-07-13T09:39:04.937Z,180
2018-07-13T09:39:30.489Z,180
2018-07-13T09:39:55.960Z,180
2018-07-13T09:40:21.453Z,180
2018-07-13T09:40:46.943Z,180
2018-07-13T09:42:00.809Z,180
2018-07-13T09:42:26.303Z,180
2018-07-13T09:42:51.806Z,180
2018-07-13T09:43:17.409Z,180
2018-07-13T09:43:42.868Z,180
2018-07-13T09:44:08.354Z,175
2018-07-13T09:44:33.875Z,175
2018-07-13T09:44:59.361Z,175
2018-07-13T09:45:24.855Z,175
2018-07-13T09:45:50.375Z,175
2018-07-13T09:46:15.887Z,175
2018-07-13T09:46:41.459Z,175
2018-07-13T09:47:06.866Z,175
2018-07-13T09:47:32.357Z,175
2018-07-13T09:47:57.868Z,175
2018-07-13T09:48:23.358Z,170
2018-07-13T09:48:48.867Z,175
2018-07-13T09:49:14.421Z,175
2018-07-13T09:49:39.949Z,175
2018-07-13T09:50:05.447Z,175
2018-07-13T09:50:30.984Z,175
2018-07-13T09:50:56.435Z,175
2018-07-13T09:51:21.955Z,175
2018-07-13T09:51:47.505Z,175
2018-07-13T09:52:12.998Z,175
2018-07-13T09:52:38.480Z,175
2018-07-13T09:53:03.938Z,175
2018-07-13T09:53:29.477Z,175
2018-07-13T09:53:55.038Z,175
2018-07-13T09:54:20.457Z,170
2018-07-13T09:54:45.923Z,170
2018-07-13T09:55:11.410Z,170
2018-07-13T09:55:36.964Z,170
2018-07-13T09:56:02.471Z,170
2018-07-13T09:56:27.986Z,170
2018-07-13T09:56:53.582Z,170
2018-07-13T09:57:19.120Z,170
2018-07-13T09:57:44.591Z,170
2018-07-13T09:58:10.074Z,170
2018-07-13T09:58:35.561Z,170
2018-07-13T09:59:01.160Z,170
2018-07-13T09:59:26.621Z,170
2018-07-13T09:59:52.109Z,170
2018-07-13T10:00:17.614Z,175
2018-07-13T10:00:43.194Z,170
2018-07-13T10:01:08.560Z,170
2018-07-13T10:01:34.074Z,170
2018-07-13T10:01:59.553Z,170
2018-07-13T10:02:25.054Z,165
2018-07-13T10:02:50.557Z,165
2018-07-13T10:03:16.147Z,165
2018-07-13T10:03:41.734Z,165
2018-07-13T10:04:07.196Z,165
2018-07-13T10:04:32.684Z,165
2018-07-13T10:04:58.203Z,165
2018-07-13T10:05:23.764Z,165
2018-07-13T10:05:49.279Z,165
2018-07-13T10:06:14.778Z,165
2018-07-13T10:06:40.260Z,165
2018-07-13T10:07:05.764Z,165
2018-07-13T10:07:31.272Z,165
2018-07-13T10:07:56.739Z,165
2018-07-13T10:08:22.232Z,165
2018-07-13T10:08:47.731Z,165
2018-07-13T10:09:13.280Z,165
2018-07-13T10:09:38.767Z,165
2018-07-13T10:10:04.232Z,165
2018-07-13T10:10:29.728Z,165
2018-07-13T10:10:55.255Z,165
2018-07-13T10:11:20.754Z,165
2018-07-13T10:11:46.280Z,165
2018-07-13T10:12:11.770Z,170
2018-07-13T10:12:37.294Z,165
2018-07-13T10:13:02.801Z,165
2018-07-13T10:13:28.413Z,165
2018-07-13T10:13:53.811Z,165
2018-07-13T10:14:19.345Z,165
2018-07-13T10:14:44.821Z,165
2018-07-13T10:15:10.319Z,165
2018-07-13T10:15:35.821Z,165
2018-07-13T10:16:01.347Z,160
2018-07-13T10:16:26.860Z,160
2018-07-13T10:16:52.365Z,160
2018-07-13T10:17:17.851Z,165
2018-07-13T10:17:43.361Z,165
2018-07-13T10:18:08.873Z,165
2018-07-13T10:18:34.389Z,165
2018-07-13T10:18:59.879Z,165
2018-07-13T10:19:25.369Z,165
2018-07-13T10:20:49.573Z,160
2018-07-13T10:21:14.946Z,160